createdAt,value
2022-11-12T00:00:11.547Z,24.45
2022-11-12T00:02:13.141Z,25.38
2022-11-12T00:04:14.903Z,24.92
2022-11-12T00:06:16.471Z,25.80
2022-11-12T00:08:18.558Z,22.98
2022-11-12T00:10:20.283Z,24.30
2022-11-12T00:12:21.874Z,24.42
2022-11-12T00:14:23.468Z,24.90
2022-11-12T00:16:25.145Z,24.80
2022-11-12T00:18:27.145Z,24.48
2022-11-12T00:20:29.164Z,24.08
2022-11-12T00:22:30.802Z,24.90
2022-11-12T00:24:32.467Z,25.05
2022-11-12T00:26:34.236Z,23.98
2022-11-12T00:28:38.145Z,24.50
2022-11-12T00:30:40.799Z,23.48
2022-11-12T00:32:42.578Z,24.02
2022-11-12T00:34:44.320Z,23.65
2022-11-12T00:36:45.917Z,23.88
2022-11-12T00:38:47.573Z,24.63
2022-11-12T00:40:49.396Z,25.90
2022-11-12T00:42:52.403Z,25.10
2022-11-12T00:44:54.125Z,26.10
2022-11-12T00:46:56.892Z,27.00
2022-11-12T00:48:58.536Z,23.80
2022-11-12T00:51:04.715Z,24.98
2022-11-12T00:53:06.348Z,24.33
2022-11-12T00:55:08.373Z,24.10
2022-11-12T00:57:10.107Z,23.35
2022-11-12T00:59:12.001Z,23.80
2022-11-12T01:01:14.744Z,24.52
2022-11-12T01:03:16.482Z,22.55
2022-11-12T01:05:18.994Z,23.50
2022-11-12T01:07:20.710Z,23.38
2022-11-12T01:09:22.604Z,22.58
2022-11-12T01:11:28.632Z,22.15
2022-11-12T01:13:30.279Z,21.67
2022-11-12T01:15:32.093Z,22.25
2022-11-12T01:17:34.130Z,22.00
2022-11-12T01:19:36.529Z,21.30
2022-11-12T01:21:41.377Z,23.48
2022-11-12T01:23:43.485Z,22.10
2022-11-12T01:25:45.060Z,22.83
2022-11-12T01:27:47.019Z,23.88
2022-11-12T01:29:48.614Z,22.48
2022-11-12T01:31:50.257Z,23.05
2022-11-12T01:33:57.844Z,22.13
2022-11-12T01:36:00.093Z,22.08
2022-11-12T01:38:01.725Z,21.58
2022-11-12T01:40:03.595Z,22.48
2022-11-12T01:42:05.396Z,21.30
2022-11-12T01:44:21.727Z,21.08
2022-11-12T01:46:28.033Z,20.13
2022-11-12T01:48:32.873Z,21.58
2022-11-12T01:50:36.472Z,21.25
2022-11-12T01:52:42.711Z,20.98
2022-11-12T01:54:47.000Z,21.55
2022-11-12T01:56:50.348Z,20.45
2022-11-12T01:59:01.901Z,19.90
2022-11-12T02:01:03.732Z,20.48
2022-11-12T02:03:15.316Z,20.02
2022-11-12T02:05:18.324Z,20.33
2022-11-12T02:07:22.432Z,20.75
2022-11-12T02:09:24.280Z,20.83
2022-11-12T02:11:25.872Z,20.70
2022-11-12T02:13:45.854Z,19.88
2022-11-12T02:15:47.471Z,19.58
2022-11-12T02:17:49.194Z,19.45
2022-11-12T02:19:52.729Z,19.95
2022-11-12T02:21:54.321Z,20.45
2022-11-12T02:24:06.648Z,20.85
2022-11-12T02:26:08.483Z,18.73
2022-11-12T02:28:10.491Z,19.67
2022-11-12T02:30:12.635Z,20.08
2022-11-12T02:32:14.398Z,18.30
2022-11-12T02:34:15.989Z,16.38
2022-11-12T02:36:17.772Z,16.55
2022-11-12T02:38:19.547Z,17.40
2022-11-12T02:40:21.548Z,12.25
2022-11-12T02:42:23.207Z,13.10
2022-11-12T02:44:25.125Z,14.80
2022-11-12T02:46:26.744Z,10.82
2022-11-12T02:48:28.519Z,9.45
2022-11-12T02:50:30.564Z,13.20
2022-11-12T02:52:32.715Z,9.93
2022-11-12T02:54:34.303Z,8.98
2022-11-12T02:56:35.992Z,9.73
2022-11-12T02:58:37.594Z,9.70
2022-11-12T03:00:39.268Z,9.27
2022-11-12T03:02:43.173Z,9.32
2022-11-12T03:06:52.461Z,8.23
2022-11-12T03:08:54.086Z,8.38
2022-11-12T03:10:55.783Z,8.30
2022-11-12T03:12:58.820Z,7.90
2022-11-12T03:15:00.417Z,7.90
2022-11-12T03:17:02.035Z,7.78
2022-11-12T03:19:03.905Z,8.10
2022-11-12T03:21:05.906Z,7.60
2022-11-12T03:23:09.810Z,7.18
2022-11-12T03:27:12.972Z,7.22
2022-11-12T03:29:14.838Z,6.97
2022-11-12T03:31:16.483Z,7.38
2022-11-12T03:33:18.191Z,7.43
2022-11-12T03:35:20.174Z,6.85
2022-11-12T03:37:21.750Z,6.57
2022-11-12T03:39:23.340Z,5.82
2022-11-12T03:41:25.092Z,5.90
2022-11-12T03:43:26.764Z,6.13
2022-11-12T03:45:28.646Z,6.20
2022-11-12T03:47:30.325Z,5.47
2022-11-12T03:49:32.129Z,6.20
2022-11-12T03:51:33.790Z,5.70
2022-11-12T03:53:35.598Z,6.35
2022-11-12T03:55:37.445Z,5.38
2022-11-12T03:57:39.356Z,6.13
2022-11-12T03:59:41.248Z,5.88
2022-11-12T04:01:42.907Z,4.80
2022-11-12T04:03:44.537Z,5.43
2022-11-12T04:06:04.843Z,5.38
2022-11-12T04:08:29.239Z,5.47
2022-11-12T04:10:31.220Z,5.32
2022-11-12T04:12:51.425Z,4.88
2022-11-12T04:14:53.124Z,5.10
2022-11-12T04:17:13.430Z,5.35
2022-11-12T04:19:33.994Z,4.82
2022-11-12T04:21:59.136Z,5.95
2022-11-12T04:24:00.882Z,5.35
2022-11-12T04:26:21.200Z,5.55
2022-11-12T04:28:23.006Z,5.70
2022-11-12T04:30:24.843Z,4.93
2022-11-12T04:32:26.619Z,6.00
2022-11-12T04:34:31.045Z,5.50
2022-11-12T04:36:32.830Z,6.22
2022-11-12T04:38:34.509Z,6.20
2022-11-12T04:40:54.627Z,5.68
2022-11-12T04:43:15.362Z,5.78
2022-11-12T04:45:17.142Z,5.40
2022-11-12T04:47:18.736Z,6.60
2022-11-12T04:49:20.612Z,5.85
2022-11-12T04:51:41.049Z,6.15
2022-11-12T04:53:42.629Z,6.32
2022-11-12T04:55:44.328Z,6.30
2022-11-12T04:58:00.206Z,5.53
2022-11-12T05:00:02.675Z,6.30
2022-11-12T05:02:04.361Z,7.32
2022-11-12T05:04:06.004Z,6.53
2022-11-12T05:06:26.541Z,6.60
2022-11-12T05:08:28.414Z,6.60
2022-11-12T05:10:31.082Z,6.10
2022-11-12T05:12:32.874Z,6.22
2022-11-12T05:14:34.540Z,6.80
2022-11-12T05:16:37.044Z,6.40
2022-11-12T05:18:38.672Z,6.80
2022-11-12T05:20:40.322Z,6.18
2022-11-12T05:22:47.707Z,6.20
2022-11-12T05:24:52.272Z,6.95
2022-11-12T05:26:54.430Z,7.28
2022-11-12T05:28:56.010Z,6.70
2022-11-12T05:30:57.739Z,6.65
2022-11-12T05:32:59.396Z,6.65
2022-11-12T05:35:01.021Z,6.32
2022-11-12T05:37:04.368Z,6.88
2022-11-12T05:39:05.966Z,7.15
2022-11-12T05:41:07.530Z,7.50
2022-11-12T05:43:09.188Z,7.28
2022-11-12T05:45:10.890Z,6.38
2022-11-12T05:47:12.445Z,7.45
2022-11-12T05:49:14.732Z,7.28
2022-11-12T05:51:16.665Z,6.50
2022-11-12T05:53:18.286Z,6.88
2022-11-12T05:55:19.948Z,9.15
2022-11-12T05:57:21.591Z,7.13
2022-11-12T05:59:23.383Z,7.47
2022-11-12T06:01:25.224Z,7.15
2022-11-12T06:03:27.133Z,6.72
2022-11-12T06:05:28.684Z,7.28
2022-11-12T06:07:30.419Z,7.43
2022-11-12T06:09:32.108Z,7.07
2022-11-12T06:11:33.869Z,7.50
2022-11-12T06:13:35.788Z,7.68
2022-11-12T06:15:39.440Z,6.93
2022-11-12T06:19:43.471Z,7.45
2022-11-12T06:22:14.586Z,6.78
2022-11-12T06:24:16.231Z,7.97
2022-11-12T06:26:19.360Z,7.65
2022-11-12T06:28:24.518Z,7.80
2022-11-12T06:30:26.325Z,8.23
2022-11-12T06:32:33.456Z,8.05
2022-11-12T06:34:35.056Z,8.43
2022-11-12T06:36:39.750Z,8.00
2022-11-12T06:38:41.985Z,7.72
2022-11-12T06:40:43.600Z,8.20
2022-11-12T06:42:45.178Z,7.53
2022-11-12T06:44:46.914Z,8.05
2022-11-12T06:46:48.610Z,8.25
2022-11-12T06:48:50.226Z,7.03
2022-11-12T06:50:51.929Z,7.75
2022-11-12T06:52:58.416Z,7.53
2022-11-12T06:55:00.097Z,7.68
2022-11-12T06:57:03.443Z,7.45
2022-11-12T06:59:07.491Z,7.55
2022-11-12T07:01:12.757Z,7.13
2022-11-12T07:03:15.128Z,7.63
2022-11-12T07:05:18.197Z,7.65
2022-11-12T07:07:20.049Z,8.10
2022-11-12T07:09:21.666Z,8.48
2022-11-12T07:11:23.343Z,8.13
2022-11-12T07:13:25.325Z,7.72
2022-11-12T07:15:26.980Z,8.57
2022-11-12T07:17:28.618Z,8.18
2022-11-12T07:19:30.505Z,7.90
2022-11-12T07:21:32.124Z,8.15
2022-11-12T07:23:35.641Z,8.68
2022-11-12T07:25:37.331Z,7.97
2022-11-12T07:27:38.960Z,7.53
2022-11-12T07:29:49.015Z,8.07
2022-11-12T07:31:50.729Z,7.88
2022-11-12T07:33:52.406Z,8.38
2022-11-12T07:36:04.431Z,8.02
2022-11-12T07:38:06.060Z,7.55
2022-11-12T07:40:08.212Z,7.63
2022-11-12T07:42:10.077Z,6.78
2022-11-12T07:44:11.696Z,6.63
2022-11-12T07:46:15.995Z,7.18
2022-11-12T07:48:17.673Z,7.22
2022-11-12T07:50:19.244Z,6.63
2022-11-12T07:52:21.571Z,6.57
2022-11-12T07:54:23.205Z,5.35
2022-11-12T07:56:26.467Z,5.65
2022-11-12T07:58:31.099Z,6.72
2022-11-12T08:00:32.828Z,6.50
2022-11-12T08:02:34.806Z,6.57
2022-11-12T08:04:36.525Z,7.28
2022-11-12T08:06:38.612Z,6.25
2022-11-12T08:08:40.408Z,6.82
2022-11-12T08:10:42.323Z,7.20
2022-11-12T08:12:43.959Z,6.20
2022-11-12T08:14:45.596Z,6.43
2022-11-12T08:16:47.244Z,6.80
2022-11-12T08:18:48.881Z,7.45
2022-11-12T08:20:50.683Z,6.53
2022-11-12T08:22:52.536Z,6.28
2022-11-12T08:24:54.153Z,6.85
2022-11-12T08:26:55.845Z,8.77
2022-11-12T08:28:57.477Z,8.57
2022-11-12T08:31:13.445Z,8.30
2022-11-12T08:33:15.088Z,7.72
2022-11-12T08:35:16.890Z,7.40
2022-11-12T08:37:18.634Z,8.00
2022-11-12T08:39:20.235Z,8.05
2022-11-12T08:41:21.911Z,6.53
2022-11-12T08:43:23.575Z,6.47
2022-11-12T08:45:25.392Z,6.50
2022-11-12T08:47:27.075Z,6.80
2022-11-12T08:49:29.383Z,6.53
2022-11-12T08:51:31.067Z,6.43
2022-11-12T08:53:33.111Z,6.70
2022-11-12T08:55:35.680Z,6.20
2022-11-12T08:57:44.180Z,6.13
2022-11-12T08:59:45.826Z,6.75
2022-11-12T09:01:47.817Z,6.65
2022-11-12T09:03:49.933Z,6.28
2022-11-12T09:05:52.301Z,5.75
2022-11-12T09:08:01.021Z,5.97
2022-11-12T09:10:02.887Z,5.30
2022-11-12T09:12:12.393Z,5.05
2022-11-12T09:14:16.825Z,4.97
2022-11-12T09:16:18.655Z,5.18
2022-11-12T09:18:20.271Z,4.88
2022-11-12T09:20:21.852Z,5.10
2022-11-12T09:22:23.655Z,4.75
2022-11-12T09:24:25.353Z,4.90
2022-11-12T09:26:27.056Z,5.43
2022-11-12T09:28:29.170Z,4.78
2022-11-12T09:30:30.915Z,5.15
2022-11-12T09:32:32.924Z,5.53
2022-11-12T09:34:34.776Z,5.07
2022-11-12T09:36:39.802Z,4.95
2022-11-12T09:38:41.816Z,5.05
2022-11-12T09:40:52.318Z,4.70
2022-11-12T09:42:54.056Z,5.47
2022-11-12T09:45:22.392Z,4.93
2022-11-12T09:47:28.024Z,4.90
2022-11-12T09:49:34.270Z,5.03
2022-11-12T09:51:43.813Z,5.63
2022-11-12T09:53:54.243Z,4.45
2022-11-12T09:55:56.050Z,4.75
2022-11-12T09:57:57.732Z,4.65
2022-11-12T09:59:59.754Z,4.43
2022-11-12T10:02:33.202Z,4.55
2022-11-12T10:04:42.182Z,4.72
2022-11-12T10:07:06.546Z,3.80
2022-11-12T10:09:20.709Z,4.50
2022-11-12T10:12:05.537Z,3.38
2022-11-12T10:15:21.405Z,3.38
2022-11-12T10:17:40.871Z,3.13
2022-11-12T10:19:48.369Z,3.25
2022-11-12T10:21:49.974Z,4.20
2022-11-12T10:23:53.290Z,3.88
2022-11-12T10:25:58.200Z,3.25
2022-11-12T10:28:04.849Z,3.22
2022-11-12T10:30:10.274Z,2.95
2022-11-12T10:32:14.927Z,3.10
2022-11-12T10:34:21.896Z,3.20
2022-11-12T10:36:33.887Z,4.95
2022-11-12T10:38:36.048Z,4.20
2022-11-12T10:40:40.381Z,4.40
2022-11-12T10:43:17.263Z,3.92
2022-11-12T10:45:23.257Z,3.90
2022-11-12T10:47:33.519Z,4.32
2022-11-12T10:49:35.212Z,4.00
2022-11-12T10:51:38.481Z,3.72
2022-11-12T10:53:40.536Z,3.75
2022-11-12T10:55:59.559Z,3.90
2022-11-12T10:58:10.182Z,4.00
2022-11-12T11:00:20.398Z,3.88
2022-11-12T11:02:22.030Z,4.80
2022-11-12T11:04:34.479Z,4.47
2022-11-12T11:06:36.355Z,4.63
2022-11-12T11:09:13.572Z,4.53
2022-11-12T11:11:24.275Z,4.72
2022-11-12T11:13:28.667Z,4.65
2022-11-12T11:15:30.528Z,4.13
2022-11-12T11:17:32.233Z,5.00
2022-11-12T11:19:37.749Z,4.00
2022-11-12T11:21:51.210Z,4.13
2022-11-12T11:24:35.708Z,4.28
2022-11-12T11:26:54.871Z,3.55
2022-11-12T11:29:34.145Z,3.65
2022-11-12T11:31:58.853Z,4.28
2022-11-12T11:34:12.803Z,3.67
2022-11-12T11:36:48.788Z,4.22
2022-11-12T11:39:17.397Z,4.13
2022-11-12T11:41:44.997Z,4.25
2022-11-12T11:44:13.640Z,6.05
2022-11-12T11:46:50.546Z,4.70
2022-11-12T11:49:16.575Z,4.07
2022-11-12T11:51:38.629Z,4.50
2022-11-12T11:53:57.265Z,4.40
2022-11-12T11:56:21.267Z,4.10
2022-11-12T11:58:44.557Z,4.32
2022-11-12T12:00:54.046Z,4.53
2022-11-12T12:03:08.156Z,3.78
2022-11-12T12:05:21.882Z,4.13
2022-11-12T12:07:35.443Z,3.78
2022-11-12T12:09:49.018Z,3.88
2022-11-12T12:12:15.324Z,4.15
2022-11-12T12:14:30.287Z,3.80
2022-11-12T12:17:11.844Z,4.28
2022-11-12T12:19:37.758Z,3.80
2022-11-12T12:21:41.502Z,4.30
2022-11-12T12:24:02.513Z,3.53
2022-11-12T12:26:10.415Z,4.55
2022-11-12T12:28:14.657Z,3.70
2022-11-12T12:30:25.118Z,4.07
2022-11-12T12:32:36.122Z,4.15
2022-11-12T12:34:42.161Z,4.60
2022-11-12T12:36:44.277Z,4.43
2022-11-12T12:38:55.722Z,4.93
2022-11-12T12:41:27.955Z,4.82
2022-11-12T12:43:36.665Z,9.40
2022-11-12T12:45:46.125Z,5.20
2022-11-12T12:47:48.179Z,4.03
2022-11-12T12:49:51.379Z,4.68
2022-11-12T12:51:55.803Z,4.85
2022-11-12T12:53:57.890Z,4.25
2022-11-12T12:56:04.756Z,5.72
2022-11-12T12:58:19.725Z,4.25
2022-11-12T13:00:33.214Z,5.03
2022-11-12T13:02:38.626Z,4.63
2022-11-12T13:04:50.951Z,4.03
2022-11-12T13:06:53.491Z,5.07
2022-11-12T13:09:15.365Z,4.78
2022-11-12T13:12:02.052Z,4.50
2022-11-12T13:14:35.858Z,4.53
2022-11-12T13:16:49.688Z,3.33
2022-11-12T13:18:51.471Z,3.95
2022-11-12T13:21:14.783Z,3.53
2022-11-12T13:24:05.279Z,3.60
2022-11-12T13:26:44.167Z,3.60
2022-11-12T13:29:23.889Z,3.30
2022-11-12T13:31:28.306Z,3.45
2022-11-12T13:33:31.528Z,3.83
2022-11-12T13:35:36.964Z,3.53
2022-11-12T13:37:44.990Z,3.85
2022-11-12T13:39:46.972Z,3.97
2022-11-12T13:42:15.928Z,4.57
2022-11-12T13:44:18.060Z,4.05
2022-11-12T13:46:24.646Z,3.90
2022-11-12T13:48:47.076Z,5.07
2022-11-12T13:50:54.664Z,4.55
2022-11-12T13:52:56.696Z,4.90
2022-11-12T13:55:07.872Z,4.60
2022-11-12T13:57:24.039Z,4.40
2022-11-12T13:59:26.265Z,4.43
2022-11-12T14:01:28.251Z,4.35
2022-11-12T14:03:43.569Z,5.40
2022-11-12T14:05:48.055Z,5.07
2022-11-12T14:08:14.836Z,4.60
2022-11-12T14:10:45.945Z,4.43
2022-11-12T14:13:09.711Z,4.10
2022-11-12T14:15:33.098Z,4.05
2022-11-12T14:17:56.311Z,4.10
2022-11-12T14:20:36.426Z,4.18
2022-11-12T14:22:42.655Z,4.00
2022-11-12T14:24:46.193Z,4.68
2022-11-12T14:26:47.876Z,4.53
2022-11-12T14:28:55.916Z,5.00
2022-11-12T14:30:58.886Z,4.10
2022-11-12T14:33:08.063Z,4.30
2022-11-12T14:35:29.634Z,4.55
2022-11-12T14:37:42.975Z,4.32
2022-11-12T14:39:45.560Z,4.53
2022-11-12T14:41:49.261Z,4.18
2022-11-12T14:44:07.729Z,5.07
2022-11-12T14:46:27.103Z,4.43
2022-11-12T14:48:30.863Z,4.68
2022-11-12T14:52:43.293Z,5.07
2022-11-12T14:54:50.604Z,4.72
2022-11-12T14:56:52.391Z,5.07
2022-11-12T14:58:54.975Z,5.40
2022-11-12T15:00:56.757Z,4.82
2022-11-12T15:03:00.113Z,4.97
2022-11-12T15:05:11.797Z,5.30
2022-11-12T15:07:58.810Z,4.90
2022-11-12T15:10:01.165Z,5.10
2022-11-12T15:12:05.421Z,5.40
2022-11-12T15:14:12.473Z,5.15
2022-11-12T15:16:27.402Z,5.38
2022-11-12T15:18:30.484Z,4.85
2022-11-12T15:20:32.190Z,5.05
2022-11-12T15:22:34.424Z,5.55
2022-11-12T15:24:37.749Z,5.05
2022-11-12T15:26:41.989Z,4.90
2022-11-12T15:29:01.392Z,6.00
2022-11-12T15:31:18.753Z,6.28
2022-11-12T15:33:23.498Z,5.78
2022-11-12T15:35:25.052Z,4.97
2022-11-12T15:37:28.672Z,5.50
2022-11-12T15:39:30.720Z,6.85
2022-11-12T15:41:34.193Z,5.97
2022-11-12T15:43:36.909Z,5.25
2022-11-12T15:45:38.557Z,5.82
2022-11-12T15:47:40.301Z,5.88
2022-11-12T15:50:13.875Z,5.90
2022-11-12T15:52:15.571Z,5.00
2022-11-12T15:54:17.194Z,5.78
2022-11-12T15:56:21.685Z,5.18
2022-11-12T15:58:33.120Z,5.18
2022-11-12T16:00:36.868Z,5.22
2022-11-12T16:04:40.137Z,4.70
2022-11-12T16:06:41.924Z,4.70
2022-11-12T16:08:43.590Z,5.25
2022-11-12T16:10:46.553Z,5.07
2022-11-12T16:12:48.446Z,4.70
2022-11-12T16:14:50.137Z,4.85
2022-11-12T16:16:51.756Z,6.70
2022-11-12T16:18:53.417Z,5.40
2022-11-12T16:20:54.964Z,5.38
2022-11-12T16:22:56.770Z,4.82
2022-11-12T16:24:58.421Z,5.15
2022-11-12T16:27:01.353Z,4.78
2022-11-12T16:29:05.814Z,4.87
2022-11-12T16:31:07.582Z,5.45
2022-11-12T16:33:13.462Z,4.28
2022-11-12T16:35:16.433Z,5.47
2022-11-12T16:37:18.224Z,5.87
2022-11-12T16:39:20.898Z,5.82
2022-11-12T16:41:22.569Z,5.47
2022-11-12T16:43:24.346Z,6.68
2022-11-12T16:45:33.008Z,4.95
2022-11-12T16:47:38.384Z,5.07
2022-11-12T16:49:40.636Z,5.22
2022-11-12T16:51:42.446Z,5.85
2022-11-12T16:53:44.681Z,6.22
2022-11-12T16:55:46.342Z,5.72
2022-11-12T16:57:48.208Z,5.20
2022-11-12T16:59:49.833Z,5.50
2022-11-12T17:01:51.679Z,6.22
2022-11-12T17:03:54.577Z,5.60
2022-11-12T17:05:56.272Z,6.78
2022-11-12T17:07:58.198Z,4.78
2022-11-12T17:09:59.924Z,5.60
2022-11-12T17:12:01.548Z,5.47
2022-11-12T17:14:04.714Z,7.88
2022-11-12T17:16:07.767Z,7.80
2022-11-12T17:18:10.373Z,15.20
2022-11-12T17:20:12.081Z,10.00
2022-11-12T17:22:13.903Z,11.25
2022-11-12T17:24:15.775Z,8.52
2022-11-12T17:26:19.904Z,9.32
2022-11-12T17:28:21.664Z,9.85
2022-11-12T17:30:23.356Z,9.52
2022-11-12T17:32:24.999Z,8.32
2022-11-12T17:34:26.608Z,9.10
2022-11-12T17:36:28.766Z,9.32
2022-11-12T17:38:30.766Z,8.25
2022-11-12T17:40:32.407Z,9.25
2022-11-12T17:42:34.075Z,8.25
2022-11-12T17:44:35.683Z,7.97
2022-11-12T17:46:37.540Z,7.95
2022-11-12T17:48:39.200Z,7.82
2022-11-12T17:50:40.779Z,7.65
2022-11-12T17:52:42.419Z,8.00
2022-11-12T17:54:44.818Z,7.70
2022-11-12T17:56:46.437Z,9.60
2022-11-12T17:58:49.834Z,7.45
2022-11-12T18:00:51.975Z,7.78
2022-11-12T18:02:56.101Z,6.85
2022-11-12T18:04:57.723Z,8.07
2022-11-12T18:06:59.394Z,8.35
2022-11-12T18:09:05.003Z,8.60
2022-11-12T18:11:07.671Z,8.82
2022-11-12T18:13:09.351Z,8.27
2022-11-12T18:15:13.114Z,8.88
2022-11-12T18:17:14.794Z,8.60
2022-11-12T18:19:16.507Z,9.15
2022-11-12T18:21:18.155Z,10.30
2022-11-12T18:23:19.876Z,10.55
2022-11-12T18:25:21.479Z,10.18
2022-11-12T18:27:23.147Z,11.65
2022-11-12T18:29:24.893Z,11.13
2022-11-12T18:31:27.686Z,11.77
2022-11-12T18:33:30.406Z,10.75
2022-11-12T18:35:32.333Z,11.10
2022-11-12T18:37:34.423Z,10.77
2022-11-12T18:39:36.096Z,11.20
2022-11-12T18:41:37.738Z,11.18
2022-11-12T18:43:39.968Z,12.93
2022-11-12T18:45:41.574Z,12.02
2022-11-12T18:47:43.147Z,11.65
2022-11-12T18:49:44.799Z,10.70
2022-11-12T18:51:46.572Z,11.48
2022-11-12T18:53:48.277Z,12.27
2022-11-12T18:55:49.917Z,11.50
2022-11-12T18:57:51.551Z,11.45
2022-11-12T18:59:55.152Z,11.52
2022-11-12T19:01:58.126Z,12.57
2022-11-12T19:03:59.754Z,12.00
2022-11-12T19:06:03.190Z,11.68
2022-11-12T19:08:04.940Z,11.85
2022-11-12T19:10:14.608Z,11.85
2022-11-12T19:12:16.708Z,11.40
2022-11-12T19:14:18.287Z,11.32
2022-11-12T19:16:22.654Z,10.45
2022-11-12T19:18:24.620Z,11.00
2022-11-12T19:20:26.516Z,11.50
2022-11-12T19:22:28.071Z,11.27
2022-11-12T19:24:30.978Z,11.13
2022-11-12T19:26:32.696Z,11.00
2022-11-12T19:28:35.146Z,9.88
2022-11-12T19:30:36.820Z,9.70
2022-11-12T19:32:38.435Z,9.55
2022-11-12T19:34:40.032Z,8.82
2022-11-12T19:36:41.930Z,8.82
2022-11-12T19:38:43.770Z,8.20
2022-11-12T19:40:45.904Z,8.10
2022-11-12T19:42:48.410Z,8.98
2022-11-12T19:44:50.296Z,7.82
2022-11-12T19:46:52.030Z,7.90
2022-11-12T19:48:53.952Z,8.00
2022-11-12T19:50:56.842Z,8.20
2022-11-12T19:52:58.404Z,9.18
2022-11-12T19:55:01.131Z,8.93
2022-11-12T19:57:02.779Z,8.75
2022-11-12T19:59:04.435Z,8.55
2022-11-12T20:01:11.211Z,8.88
2022-11-12T20:03:12.829Z,8.05
2022-11-12T20:05:14.526Z,8.30
2022-11-12T20:07:16.330Z,8.90
2022-11-12T20:09:18.210Z,8.63
2022-11-12T20:11:20.158Z,8.88
2022-11-12T20:13:22.008Z,8.55
2022-11-12T20:15:23.657Z,8.10
2022-11-12T20:17:25.336Z,8.45
2022-11-12T20:19:27.885Z,7.38
2022-11-12T20:21:30.990Z,8.13
2022-11-12T20:23:33.985Z,7.88
2022-11-12T20:25:35.805Z,7.37
2022-11-12T20:27:37.536Z,7.75
2022-11-12T20:29:39.147Z,7.65
2022-11-12T20:31:42.061Z,6.57
2022-11-12T20:33:43.641Z,7.53
2022-11-12T20:35:45.506Z,7.50
2022-11-12T20:37:47.274Z,7.50
2022-11-12T20:39:48.931Z,7.70
2022-11-12T20:41:50.603Z,8.13
2022-11-12T20:43:57.786Z,7.82
2022-11-12T20:45:59.810Z,7.68
2022-11-12T20:48:01.428Z,7.70
2022-11-12T20:50:03.424Z,7.75
2022-11-12T20:52:05.041Z,7.57
2022-11-12T20:54:06.660Z,6.85
2022-11-12T20:56:13.355Z,7.72
2022-11-12T20:58:14.930Z,7.30
2022-11-12T21:00:22.933Z,6.70
2022-11-12T21:02:25.752Z,7.18
2022-11-12T21:04:27.804Z,7.22
2022-11-12T21:06:29.625Z,7.45
2022-11-12T21:08:32.275Z,7.45
2022-11-12T21:10:33.891Z,7.53
2022-11-12T21:12:35.904Z,7.38
2022-11-12T21:14:37.618Z,7.70
2022-11-12T21:16:39.211Z,6.85
2022-11-12T21:18:41.322Z,7.18
2022-11-12T21:20:43.270Z,8.35
2022-11-12T21:22:44.848Z,8.07
2022-11-12T21:24:46.548Z,7.55
2022-11-12T21:26:51.288Z,7.68
2022-11-12T21:28:54.441Z,7.95
2022-11-12T21:31:03.012Z,8.35
2022-11-12T21:33:04.848Z,7.85
2022-11-12T21:35:07.035Z,8.10
2022-11-12T21:37:09.015Z,7.53
2022-11-12T21:39:12.169Z,7.47
2022-11-12T21:41:19.218Z,7.97
2022-11-12T21:43:21.485Z,8.57
2022-11-12T21:45:23.190Z,7.78
2022-11-12T21:47:24.833Z,7.82
2022-11-12T21:49:26.431Z,7.68
2022-11-12T21:51:31.005Z,7.80
2022-11-12T21:53:33.125Z,8.27
2022-11-12T21:55:35.694Z,7.50
2022-11-12T21:57:37.350Z,7.63
2022-11-12T21:59:38.985Z,7.43
2022-11-12T22:01:40.732Z,7.15
2022-11-12T22:03:42.574Z,7.53
2022-11-12T22:05:44.183Z,7.63
2022-11-12T22:07:45.814Z,8.93
2022-11-12T22:09:49.431Z,7.80
2022-11-12T22:11:54.165Z,9.85
2022-11-12T22:13:55.894Z,8.40
2022-11-12T22:15:58.167Z,9.05
2022-11-12T22:17:59.770Z,9.02
2022-11-12T22:20:01.395Z,8.70
2022-11-12T22:22:03.023Z,7.88
2022-11-12T22:24:05.320Z,6.60
2022-11-12T22:26:10.143Z,7.78
2022-11-12T22:28:11.823Z,6.72
2022-11-12T22:30:13.554Z,6.32
2022-11-12T22:32:15.127Z,6.70
2022-11-12T22:34:16.718Z,7.00
2022-11-12T22:36:23.340Z,6.13
2022-11-12T22:38:25.101Z,5.90
2022-11-12T22:40:27.028Z,5.43
2022-11-12T22:42:28.918Z,4.57
2022-11-12T22:44:30.551Z,5.07
2022-11-12T22:46:34.241Z,4.55
2022-11-12T22:48:36.005Z,4.78
2022-11-12T22:50:37.624Z,4.70
2022-11-12T22:52:39.212Z,4.28
2022-11-12T22:54:41.069Z,3.97
2022-11-12T22:56:42.627Z,3.90
2022-11-12T22:58:46.049Z,4.22
2022-11-12T23:00:47.940Z,4.47
2022-11-12T23:02:49.516Z,3.95
2022-11-12T23:04:51.367Z,5.60
2022-11-12T23:06:53.001Z,4.28
2022-11-12T23:08:55.444Z,4.28
2022-11-12T23:10:57.705Z,4.30
2022-11-12T23:12:59.377Z,4.13
2022-11-12T23:15:00.952Z,4.22
2022-11-12T23:17:02.774Z,4.60
2022-11-12T23:19:04.459Z,4.65
2022-11-12T23:21:08.970Z,4.30
2022-11-12T23:23:10.602Z,4.82
2022-11-12T23:25:12.292Z,4.53
2022-11-12T23:27:13.886Z,4.60
2022-11-12T23:29:15.588Z,4.90
2022-11-12T23:31:26.306Z,7.53
2022-11-12T23:33:27.980Z,7.13
2022-11-12T23:35:30.200Z,8.00
2022-11-12T23:37:31.866Z,9.88
2022-11-12T23:39:33.460Z,10.02
2022-11-12T23:41:35.346Z,11.18
2022-11-12T23:43:37.035Z,10.48
2022-11-12T23:45:38.626Z,10.60
2022-11-12T23:47:40.332Z,11.20
2022-11-12T23:49:41.903Z,10.70
2022-11-12T23:51:43.487Z,10.30
2022-11-12T23:53:45.870Z,10.05
2022-11-12T23:55:47.424Z,8.80
2022-11-12T23:57:48.997Z,8.45
2022-11-12T23:59:50.869Z,8.95
